19:06
Airports
History
Links
Donate
Help keep this website running!
PayPal
Bitcoin
This page is community maintained. The information is intended for PC simulator navigation or reference.
Always use approved charts for navigation.
SNYX
Sitio Vodo
Sitio Vodo (SNYX)
Cascavel, Ceara, Brazil (62850)
4
Lat/Lng:4° 5' 42" S / 38° 14' 51" W
-4.095 / -38.2475
Elevation:249'ft / 76mMSL
ID / ICAO:SNYX
Runways:1
Longest:17-35
Grass 467m / 1,531ft
Nearby Weather19:00 GMT 2017-12-11
Nearby weather at SBFZ, Pinto Martins located 29.5 nautical miles from SNYX
Altimeter: 29.80
Visibility: 6.2 statute miles
Wind: 12 knots (from 080°)
Temp: 30°c / 86°f
Humidity: 62.3%

METAR: SBFZ 111900Z 08012KT 9999 FEW023 30/22 Q1009

(Powered by phpweather)
Runway 17 / 35
Dimensions:466.7 x 20.1m 1531' x 66'ft
Surface:Grass
Runway 17 [A]Runway 35 [B]
Heading:148°TH 328°TH
Lat:
Lng:
4° 5' 35.5"S
38° 14' 54.98"W
4° 5' 48.5"S
38° 14' 47.02"W
User Notes and Comments
4° 5' 42" S / 38° 14' 51" W
Distance To
Airport ID:
Nearby Airports
4 Darinha 1.5 NM
SWWZ S 188°
(U) Fabrica Fortaleza 20.9 NM
SJDS WNW 303°
(C) Pinto Martins 29.5 NM
SBFZ ( WX ) NW 318°
4 Feijo 32.2 NM
SNFF NW 307°
(C) Aracati 44.9 NM
SNAT SE 136°
4 Vicente Jose 52.2 NM
SNYZ S 172°
(C) Russas 61.1 NM
SNRS SSE 164°
VFR Chart
Flight Planning at SkyVector.com